Time;durP1;ratioP1;P1;durP2;ratioP2;P2;SDS_P1;SDS_P2;PMS_P1;PMS_P2;Temp;Humidity;BMP_temperature;BMP_pressure;BME280_temperature;BME280_humidity;BME280_pressure;Samples;Min_cycle;Max_cycle;Signal;HPM_P1;HPM_P2
2022/05/05 00:01:51;;;;;;;12.90;3.90;;;;;;;9.01;36.86;100567.96;106169;1274;114140;-74
2022/05/05 00:04:23;;;;;;;7.10;3.80;;;;;;;8.97;37.06;100568.71;106316;1274;107838;-74
2022/05/05 00:06:55;;;;;;;10.00;3.70;;;;;;;8.94;37.12;100570.15;106633;1274;137448;-73
2022/05/05 00:09:27;;;;;;;5.50;3.30;;;;;;;8.92;37.28;100574.72;106214;1274;97857;-74
2022/05/05 00:14:48;;;;;;;7.50;3.50;;;;;;;8.88;37.39;100567.17;106039;1281;111052;-74
2022/05/05 00:17:20;;;;;;;6.10;3.30;;;;;;;8.86;37.53;100569.31;105835;1279;138910;-74
2022/05/05 00:19:52;;;;;;;9.40;3.70;;;;;;;8.84;37.49;100571.08;105888;1281;107137;-74
2022/05/05 00:22:25;;;;;;;12.00;3.70;;;;;;;8.83;37.52;100567.98;106015;1279;97845;-75
2022/05/05 00:24:57;;;;;;;9.00;3.90;;;;;;;8.83;37.60;100560.01;105909;1279;137609;-74
2022/05/05 00:27:29;;;;;;;7.50;3.40;;;;;;;8.84;37.68;100565.20;106044;1277;112548;-75
2022/05/05 00:30:01;;;;;;;7.60;3.40;;;;;;;8.84;37.72;100559.13;105916;1279;137661;-75
2022/05/05 00:32:33;;;;;;;7.20;3.60;;;;;;;8.85;37.56;100558.92;105945;1281;108280;-74
2022/05/05 00:35:06;;;;;;;9.40;3.50;;;;;;;8.86;37.69;100561.50;105849;1281;137938;-75
2022/05/05 00:37:38;;;;;;;8.00;3.30;;;;;;;8.88;37.74;100557.30;106127;1278;98847;-74
2022/05/05 00:40:12;;;;;;;8.70;3.80;;;;;;;8.89;37.68;100561.27;106022;1281;112453;-74
2022/05/05 00:42:44;;;;;;;8.90;3.30;;;;;;;8.89;37.79;100562.48;106122;1278;138079;-74
2022/05/05 00:45:17;;;;;;;8.60;3.00;;;;;;;8.89;37.73;100559.37;106019;1281;108848;-74
2022/05/05 00:47:49;;;;;;;10.20;3.10;;;;;;;8.88;37.81;100564.74;105900;1281;137542;-75
2022/05/05 00:50:21;;;;;;;8.80;3.50;;;;;;;8.85;37.87;100562.04;106053;1278;97835;-74
2022/05/05 00:52:54;;;;;;;9.30;3.30;;;;;;;8.83;37.70;100554.46;106002;1278;138602;-74
2022/05/05 00:55:26;;;;;;;8.80;3.50;;;;;;;8.80;37.72;100563.88;106244;1274;109154;-74
2022/05/05 00:57:58;;;;;;;7.70;3.00;;;;;;;8.78;37.74;100561.80;106259;1274;108737;-74
2022/05/05 01:00:31;;;;;;;8.10;3.50;;;;;;;8.76;37.85;100558.73;106090;1274;137585;-75
2022/05/05 01:03:08;;;;;;;8.60;3.20;;;;;;;8.75;38.06;100562.91;106185;1274;97856;-75
2022/05/05 01:05:41;;;;;;;10.00;3.40;;;;;;;8.73;37.80;100564.69;106145;1274;137291;-76
2022/05/05 01:08:14;;;;;;;7.30;3.40;;;;;;;8.71;37.85;100560.92;106251;1274;108551;-76
2022/05/05 01:10:46;;;;;;;7.60;3.20;;;;;;;8.70;37.97;100562.51;106104;1274;137846;-74
2022/05/05 01:13:18;;;;;;;7.30;3.80;;;;;;;8.67;38.02;100563.77;106206;1274;97847;-75
2022/05/05 01:15:50;;;;;;;7.40;3.40;;;;;;;8.66;38.01;100556.52;106244;1274;97902;-75
2022/05/05 01:18:22;;;;;;;13.10;3.30;;;;;;;8.64;38.21;100553.95;106067;1274;137493;-75
2022/05/05 01:20:55;;;;;;;10.30;3.60;;;;;;;8.64;38.07;100555.20;106291;1274;109121;-75
2022/05/05 01:23:27;;;;;;;6.90;3.30;;;;;;;8.64;38.39;100555.86;106535;1274;138264;-74
2022/05/05 01:28:49;;;;;;;5.50;2.70;;;;;;;8.63;38.28;100553.80;106140;1274;139379;-74
2022/05/05 01:31:21;;;;;;;6.20;3.00;;;;;;;8.64;38.20;100554.50;106225;1274;112443;-75
2022/05/05 01:33:53;;;;;;;7.40;3.10;;;;;;;8.63;38.32;100560.74;106236;1274;108759;-75
2022/05/05 01:36:25;;;;;;;6.40;3.10;;;;;;;8.61;38.32;100557.13;106126;1274;137933;-75
2022/05/05 01:38:58;;;;;;;8.80;3.30;;;;;;;8.61;38.30;100559.03;106335;1274;97799;-75
2022/05/05 01:41:31;;;;;;;8.00;3.00;;;;;;;8.60;38.23;100553.50;106098;1274;137773;-75
2022/05/05 01:44:03;;;;;;;8.10;3.70;;;;;;;8.59;38.28;100556.11;106275;1274;111962;-75
2022/05/05 01:46:35;;;;;;;8.00;3.00;;;;;;;8.59;38.27;100557.34;106333;1274;109034;-74
2022/05/05 01:49:07;;;;;;;5.40;3.00;;;;;;;8.59;38.21;100559.94;106113;1274;137312;-76
2022/05/05 01:51:39;;;;;;;6.10;2.60;;;;;;;8.58;38.18;100554.41;106236;1274;97827;-75
2022/05/05 01:54:11;;;;;;;5.10;3.10;;;;;;;8.58;38.30;100566.18;106660;1274;138487;-75
2022/05/05 01:56:48;;;;;;;5.60;2.90;;;;;;;8.58;38.13;100553.02;106240;1274;110605;-76
2022/05/05 01:59:20;;;;;;;10.10;2.80;;;;;;;8.59;38.26;100556.98;106082;1274;138128;-74
2022/05/05 02:01:52;;;;;;;8.20;2.80;;;;;;;8.60;38.16;100562.17;106219;1274;107323;-75
2022/05/05 02:04:24;;;;;;;6.80;3.10;;;;;;;8.60;38.10;100555.92;106190;1274;98466;-75
2022/05/05 02:06:56;;;;;;;5.20;3.10;;;;;;;8.60;38.13;100560.60;106387;1274;137294;-75
2022/05/05 02:09:28;;;;;;;9.80;3.10;;;;;;;8.61;38.08;100558.33;106247;1274;111663;-75
2022/05/05 02:12:02;;;;;;;5.40;2.70;;;;;;;8.61;37.97;100563.37;106268;1274;137593;-75
2022/05/05 02:14:34;;;;;;;7.20;2.90;;;;;;;8.61;37.93;100556.78;106233;1274;108325;-75
2022/05/05 02:17:06;;;;;;;6.20;2.70;;;;;;;8.62;37.95;100558.16;106288;1274;137688;-75
2022/05/05 02:19:39;;;;;;;6.00;3.00;;;;;;;8.63;37.86;100557.98;106268;1274;97814;-75
2022/05/05 02:22:11;;;;;;;4.80;2.90;;;;;;;8.63;37.83;100555.91;106225;1274;112433;-75
2022/05/05 02:24:44;;;;;;;6.10;2.90;;;;;;;8.64;37.64;100556.05;106936;1274;137793;-76
2022/05/05 02:27:16;;;;;;;10.20;3.20;;;;;;;8.63;37.76;100552.77;106202;1274;107283;-74
2022/05/05 02:29:49;;;;;;;5.20;2.60;;;;;;;8.64;37.84;100546.70;106092;1274;138574;-75
2022/05/05 02:32:22;;;;;;;8.80;3.10;;;;;;;8.65;37.85;100549.80;106191;1273;97951;-75
2022/05/05 02:34:54;;;;;;;5.20;2.70;;;;;;;8.66;37.73;100548.55;106080;1274;138322;-74
2022/05/05 02:40:17;;;;;;;8.30;3.30;;;;;;;8.67;37.71;100553.54;106452;1274;108788;-74
2022/05/05 02:42:49;;;;;;;7.50;3.10;;;;;;;8.68;37.55;100549.20;106106;1274;137666;-74
2022/05/05 02:45:21;;;;;;;6.40;3.10;;;;;;;8.68;37.73;100543.13;106272;1274;97851;-74
2022/05/05 02:47:53;;;;;;;4.30;2.80;;;;;;;8.69;37.68;100545.35;106266;1274;137878;-74
2022/05/05 02:50:25;;;;;;;7.40;3.20;;;;;;;8.71;37.58;100539.25;106238;1274;108403;-74
2022/05/05 02:52:58;;;;;;;9.80;3.30;;;;;;;8.72;37.68;100543.56;106077;1274;137784;-74
2022/05/05 02:55:30;;;;;;;5.10;2.80;;;;;;;8.72;37.48;100545.81;106181;1274;97844;-75
2022/05/05 02:58:02;;;;;;;8.10;3.40;;;;;;;8.73;37.44;100545.80;106202;1274;97863;-74
2022/05/05 03:00:34;;;;;;;7.80;2.90;;;;;;;8.74;37.35;100553.23;106094;1274;137648;-74
2022/05/05 03:03:07;;;;;;;5.10;2.60;;;;;;;8.74;37.44;100556.52;106999;1274;107848;-75
2022/05/05 03:05:39;;;;;;;5.90;3.00;;;;;;;8.73;37.26;100555.85;106051;1274;138209;-74
2022/05/05 03:08:11;;;;;;;5.70;2.80;;;;;;;8.74;37.33;100554.09;106220;1274;97858;-75
2022/05/05 03:10:44;;;;;;;6.00;2.90;;;;;;;8.73;37.39;100560.52;106150;1274;138649;-73
2022/05/05 03:13:16;;;;;;;9.10;3.00;;;;;;;8.73;37.45;100558.10;106203;1274;112562;-75
2022/05/05 03:15:48;;;;;;;6.10;2.70;;;;;;;8.73;37.38;100557.92;106197;1274;109107;-75
2022/05/05 03:18:20;;;;;;;7.20;2.60;;;;;;;8.73;37.45;100554.63;106026;1274;138240;-75
2022/05/05 03:20:52;;;;;;;7.40;2.60;;;;;;;8.73;37.38;100552.38;106152;1274;97838;-74
2022/05/05 03:23:24;;;;;;;10.80;3.10;;;;;;;8.74;37.40;100553.06;106494;1274;137490;-74
2022/05/05 03:25:56;;;;;;;6.30;2.70;;;;;;;8.73;37.47;100555.50;106199;1274;110869;-74
2022/05/05 03:28:28;;;;;;;6.70;3.00;;;;;;;8.73;37.56;100554.11;106242;1274;108907;-74
2022/05/05 03:31:00;;;;;;;5.70;2.90;;;;;;;8.72;37.32;100556.91;106151;1274;138117;-74
2022/05/05 03:33:33;;;;;;;4.40;2.90;;;;;;;8.71;37.51;100549.30;106241;1274;97798;-74
2022/05/05 03:36:05;;;;;;;8.30;2.90;;;;;;;8.71;37.57;100551.05;106379;1274;137396;-75
2022/05/05 03:38:37;;;;;;;7.80;2.80;;;;;;;8.72;37.49;100555.54;106304;1274;112416;-75
2022/05/05 03:41:09;;;;;;;7.50;3.00;;;;;;;8.72;37.67;100556.39;106109;1274;137688;-75
2022/05/05 03:43:42;;;;;;;8.30;3.30;;;;;;;8.72;37.46;100559.17;106212;1274;107426;-75
2022/05/05 03:46:13;;;;;;;5.70;2.90;;;;;;;8.72;37.56;100557.62;106191;1274;98542;-74
2022/05/05 03:48:46;;;;;;;9.80;3.00;;;;;;;8.71;37.53;100562.14;106489;1274;137843;-73
2022/05/05 03:51:18;;;;;;;7.90;3.00;;;;;;;8.71;37.71;100567.69;106184;1274;110896;-73
2022/05/05 03:53:50;;;;;;;5.90;2.60;;;;;;;8.70;37.79;100566.14;106181;1274;137617;-73
2022/05/05 03:56:22;;;;;;;10.10;3.20;;;;;;;8.70;37.78;100562.69;106215;1274;109011;-75
2022/05/05 03:58:54;;;;;;;6.50;3.00;;;;;;;8.70;37.79;100565.61;106132;1274;138143;-74
2022/05/05 04:01:26;;;;;;;8.80;3.20;;;;;;;8.70;37.92;100565.80;106193;1274;97691;-73
2022/05/05 04:03:58;;;;;;;6.90;3.00;;;;;;;8.69;37.96;100571.71;106212;1274;112166;-74
2022/05/05 04:06:30;;;;;;;6.30;3.10;;;;;;;8.69;37.77;100568.75;106077;1274;138533;-74
2022/05/05 04:09:04;;;;;;;4.30;2.80;;;;;;;8.72;37.76;100561.60;106222;1274;108722;-75
2022/05/05 04:11:36;;;;;;;7.10;3.30;;;;;;;8.75;37.79;100574.02;106102;1274;137518;-75
2022/05/05 04:14:08;;;;;;;7.80;3.10;;;;;;;8.77;37.88;100570.67;106221;1274;97841;-75
2022/05/05 04:16:41;;;;;;;7.50;3.60;;;;;;;8.78;37.89;100572.39;106206;1274;112484;-74
2022/05/05 04:19:14;;;;;;;7.50;3.10;;;;;;;8.78;37.69;100570.98;106116;1274;139511;-74
2022/05/05 04:21:46;;;;;;;11.50;3.20;;;;;;;8.80;37.88;100573.23;106250;1274;108535;-74
2022/05/05 04:24:18;;;;;;;8.20;3.20;;;;;;;8.81;37.90;100569.77;106109;1274;137862;-74
2022/05/05 04:26:50;;;;;;;4.80;2.60;;;;;;;8.83;37.71;100573.89;106220;1274;97774;-73
2022/05/05 04:29:22;;;;;;;8.40;3.80;;;;;;;8.82;37.88;100574.25;106155;1274;137617;-73
2022/05/05 04:31:55;;;;;;;9.20;3.50;;;;;;;8.82;37.92;100569.92;106423;1274;107766;-72
2022/05/05 04:34:27;;;;;;;6.20;3.20;;;;;;;8.83;37.99;100571.63;106211;1274;107133;-72
2022/05/05 04:36:59;;;;;;;13.70;3.60;;;;;;;8.85;38.00;100573.14;106121;1274;138644;-72
2022/05/05 04:39:31;;;;;;;9.80;4.00;;;;;;;8.88;37.88;100572.20;106228;1274;97808;-73
2022/05/05 04:42:04;;;;;;;10.20;3.30;;;;;;;8.90;37.91;100572.34;106098;1274;138445;-74
2022/05/05 04:44:36;;;;;;;9.90;3.90;;;;;;;8.91;37.93;100573.53;106555;1274;107537;-74
2022/05/05 04:47:08;;;;;;;9.00;3.40;;;;;;;8.93;37.92;100571.75;106114;1274;138252;-74
2022/05/05 04:49:41;;;;;;;10.10;4.00;;;;;;;8.93;37.99;100571.40;106541;1274;97863;-74
2022/05/05 04:52:13;;;;;;;10.50;3.30;;;;;;;8.95;37.92;100578.11;106258;1273;97919;-74
2022/05/05 04:54:45;;;;;;;6.70;3.30;;;;;;;8.97;38.03;100574.09;106175;1274;137490;-73
2022/05/05 04:57:17;;;;;;;7.90;3.40;;;;;;;8.99;37.99;100573.89;106233;1274;108248;-75
2022/05/05 04:59:49;;;;;;;9.40;3.40;;;;;;;9.02;38.02;100575.21;106110;1274;138402;-74
2022/05/05 05:02:21;;;;;;;10.30;3.50;;;;;;;9.05;38.05;100574.63;106229;1274;97815;-74
2022/05/05 05:04:53;;;;;;;9.50;3.80;;;;;;;9.09;38.11;100571.94;106214;1274;138024;-73
2022/05/05 05:07:25;;;;;;;8.80;3.50;;;;;;;9.13;38.11;100574.80;106167;1274;111915;-73
2022/05/05 05:09:58;;;;;;;11.80;3.50;;;;;;;9.20;38.05;100577.63;106320;1274;109030;-73
2022/05/05 05:12:30;;;;;;;12.40;3.70;;;;;;;9.28;37.99;100576.75;106099;1274;138887;-73
2022/05/05 05:15:02;;;;;;;14.60;4.00;;;;;;;9.36;37.89;100579.70;106205;1274;97967;-73
2022/05/05 05:17:34;;;;;;;11.70;4.10;;;;;;;9.41;37.90;100582.36;106114;1274;137783;-73
2022/05/05 05:20:09;;;;;;;9.20;4.20;;;;;;;9.48;37.89;100579.77;106201;1274;112137;-73
2022/05/05 05:22:42;;;;;;;12.00;4.10;;;;;;;9.55;37.83;100583.28;106244;1274;108041;-74
2022/05/05 05:25:14;;;;;;;8.30;4.10;;;;;;;9.63;37.77;100586.55;106069;1274;137809;-74
2022/05/05 05:27:45;;;;;;;10.80;4.10;;;;;;;9.68;37.70;100587.99;106191;1274;97822;-73
2022/05/05 05:30:37;;;;;;;12.90;4.30;;;;;;;9.78;37.71;100583.42;106120;1274;138108;-73
2022/05/05 05:33:10;;;;;;;11.70;4.10;;;;;;;9.90;37.69;100590.09;106182;1273;112951;-74
2022/05/05 05:35:42;;;;;;;8.30;3.30;;;;;;;10.03;37.46;100595.52;106126;1274;139891;-74
2022/05/05 05:38:14;;;;;;;13.10;3.90;;;;;;;10.15;37.19;100591.39;106180;1274;108962;-74
2022/05/05 05:40:47;;;;;;;12.30;3.90;;;;;;;10.54;37.10;100590.08;106210;1273;98197;-74
2022/05/05 05:43:19;;;;;;;13.30;4.30;;;;;;;10.97;36.31;100590.30;106095;1276;137870;-73
2022/05/05 05:45:51;;;;;;;5.90;4.00;;;;;;;10.98;36.16;100593.73;106245;1274;112558;-74
2022/05/05 05:48:24;;;;;;;12.80;4.10;;;;;;;10.97;36.10;100591.86;106137;1274;137835;-74
2022/05/05 05:50:56;;;;;;;11.40;3.70;;;;;;;11.06;36.17;100592.09;106232;1274;109579;-74
2022/05/05 05:53:28;;;;;;;11.80;4.10;;;;;;;11.49;35.92;100590.48;107487;1274;138514;-72
2022/05/05 05:56:00;;;;;;;8.10;3.80;;;;;;;12.16;34.72;100591.51;106232;1274;97839;-73
2022/05/05 05:58:32;;;;;;;13.60;3.90;;;;;;;12.12;34.72;100584.34;106237;1274;111939;-73
2022/05/05 06:01:06;;;;;;;10.80;4.20;;;;;;;11.98;34.74;100586.52;106116;1274;138089;-74
2022/05/05 06:03:57;;;;;;;10.90;3.80;;;;;;;11.79;34.94;100584.35;106182;1274;108854;-73
2022/05/05 06:06:29;;;;;;;13.90;4.20;;;;;;;11.63;35.27;100578.72;106038;1274;137960;-74
2022/05/05 06:09:02;;;;;;;9.50;3.80;;;;;;;11.55;35.59;100581.79;106292;1274;97877;-74
2022/05/05 06:11:35;;;;;;;12.80;3.90;;;;;;;11.54;35.77;100584.63;106169;1274;137976;-73
2022/05/05 06:14:07;;;;;;;15.30;4.30;;;;;;;11.61;35.79;100586.80;106615;1274;108870;-74
2022/05/05 06:16:39;;;;;;;13.10;4.40;;;;;;;11.94;35.71;100588.58;106199;1274;108298;-74
2022/05/05 06:19:11;;;;;;;8.70;4.00;;;;;;;12.36;35.33;100584.91;106063;1274;138193;-74
2022/05/05 06:21:43;;;;;;;6.30;3.80;;;;;;;12.67;34.96;100582.44;106216;1274;97747;-74
2022/05/05 06:24:15;;;;;;;16.10;4.60;;;;;;;12.90;34.65;100584.58;106101;1274;137828;-74
2022/05/05 06:26:47;;;;;;;13.00;3.80;;;;;;;13.08;34.53;100588.81;106222;1274;108172;-74
2022/05/05 06:29:19;;;;;;;11.30;3.70;;;;;;;13.24;34.46;100585.27;106069;1274;140421;-73
2022/05/05 06:31:52;;;;;;;11.80;4.00;;;;;;;13.38;34.11;100582.67;106193;1274;97863;-73
2022/05/05 06:34:24;;;;;;;12.30;4.00;;;;;;;13.57;33.98;100581.05;106244;1274;97895;-74
2022/05/05 06:36:56;;;;;;;12.10;4.00;;;;;;;13.75;33.80;100582.26;106062;1274;137947;-74
2022/05/05 06:39:28;;;;;;;23.10;4.60;;;;;;;13.90;33.54;100581.10;106185;1274;108243;-74
2022/05/05 06:42:01;;;;;;;15.70;4.50;;;;;;;14.05;33.30;100579.61;106231;1274;138163;-74
2022/05/05 06:44:33;;;;;;;10.40;4.20;;;;;;;14.09;33.34;100583.46;106596;1274;97843;-74
2022/05/05 06:47:05;;;;;;;10.70;3.70;;;;;;;14.04;33.25;100579.17;106129;1274;138373;-74
2022/05/05 06:49:38;;;;;;;14.30;3.90;;;;;;;13.97;33.29;100589.56;106398;1274;112541;-74
2022/05/05 06:52:10;;;;;;;11.50;4.00;;;;;;;13.84;33.47;100586.26;106228;1274;107939;-74
2022/05/05 06:55:04;;;;;;;9.00;3.80;;;;;;;13.66;33.69;100587.48;106833;1274;138163;-75
2022/05/05 06:57:37;;;;;;;13.60;3.60;;;;;;;13.55;33.95;100591.60;106173;1274;97954;-75
2022/05/05 07:00:11;;;;;;;10.80;3.90;;;;;;;13.47;34.18;100592.96;106776;1274;139571;-74
2022/05/05 07:02:43;;;;;;;9.30;4.00;;;;;;;13.41;34.39;100603.50;106275;1274;111480;-74
2022/05/05 07:05:26;;;;;;;9.00;3.80;;;;;;;13.33;34.35;100607.14;106241;1274;139818;-74
2022/05/05 07:07:59;;;;;;;11.80;3.80;;;;;;;13.25;34.59;100602.00;106410;1274;107601;-74
2022/05/05 07:13:21;;;;;;;8.40;3.50;;;;;;;13.16;34.90;100609.66;106091;1274;137719;-74
2022/05/05 07:15:54;;;;;;;10.10;4.00;;;;;;;13.16;35.02;100600.73;106461;1274;112357;-72
2022/05/05 07:18:26;;;;;;;13.20;4.20;;;;;;;13.32;35.16;100601.37;106238;1274;138088;-73
2022/05/05 07:20:58;;;;;;;17.90;4.30;;;;;;;13.90;34.87;100600.34;106183;1274;108476;-73
2022/05/05 07:23:30;;;;;;;7.70;4.10;;;;;;;14.73;34.17;100599.33;106076;1274;138360;-73
2022/05/05 07:26:02;;;;;;;16.60;4.00;;;;;;;15.66;33.20;100598.42;106269;1274;97968;-74
2022/05/05 07:28:34;;;;;;;11.00;3.80;;;;;;;16.41;31.91;100588.05;106232;1274;111376;-74
2022/05/05 07:31:06;;;;;;;8.70;3.40;;;;;;;16.53;31.21;100591.69;106150;1274;138144;-74
2022/05/05 07:33:38;;;;;;;11.90;3.90;;;;;;;16.56;31.28;100589.80;106158;1273;109420;-73
2022/05/05 07:36:11;;;;;;;10.50;3.80;;;;;;;16.42;31.17;100586.44;106046;1274;139043;-73
2022/05/05 07:38:43;;;;;;;11.10;3.40;;;;;;;16.17;31.23;100588.41;106205;1274;97966;-74
2022/05/05 07:41:15;;;;;;;7.50;3.70;;;;;;;15.91;31.63;100592.66;106149;1274;138474;-75
2022/05/05 07:43:50;;;;;;;14.10;3.60;;;;;;;15.70;31.80;100593.87;106405;1274;107852;-73
2022/05/05 07:46:23;;;;;;;10.90;4.20;;;;;;;15.71;32.05;100596.25;106188;1274;106880;-73
2022/05/05 07:48:56;;;;;;;14.10;3.90;;;;;;;16.12;31.73;100593.23;106106;1274;138492;-74
2022/05/05 07:51:28;;;;;;;8.20;3.60;;;;;;;16.32;31.18;100591.15;106272;1273;98215;-74
2022/05/05 07:56:52;;;;;;;14.00;4.20;;;;;;;17.73;30.32;100580.09;106480;1274;108101;-73
2022/05/05 07:59:24;;;;;;;10.90;3.90;;;;;;;18.59;29.04;100572.66;106130;1274;138249;-72
2022/05/05 08:01:56;;;;;;;10.10;3.80;;;;;;;19.41;28.25;100583.13;106385;1276;97851;-72
2022/05/05 08:04:29;;;;;;;9.30;3.80;;;;;;;20.20;27.56;100573.17;106219;1274;97855;-72
2022/05/05 08:07:01;;;;;;;14.00;4.00;;;;;;;20.29;27.14;100572.80;106147;1274;137741;-72
2022/05/05 08:09:33;;;;;;;9.10;3.60;;;;;;;19.98;27.31;100578.88;106247;1274;108469;-72
2022/05/05 08:12:25;;;;;;;8.40;4.10;;;;;;;19.47;27.22;100579.38;106104;1274;138905;-73
2022/05/05 08:15:01;;;;;;;7.40;3.40;;;;;;;19.48;27.76;100581.61;106206;1274;97816;-72
2022/05/05 08:17:33;;;;;;;7.10;3.30;;;;;;;20.11;27.20;100580.13;106227;1274;139163;-72
2022/05/05 08:20:08;;;;;;;9.60;3.70;;;;;;;20.20;27.03;100573.54;106196;1274;112489;-72
2022/05/05 08:22:40;;;;;;;10.30;3.70;;;;;;;20.32;27.04;100571.33;106338;1274;108126;-71
2022/05/05 08:30:51;;;;;;;8.20;3.70;;;;;;;22.40;25.11;100569.29;106170;1274;139802;-72
2022/05/05 08:33:27;;;;;;;7.20;3.80;;;;;;;23.13;24.43;100564.13;106250;1274;113132;-71
2022/05/05 08:36:00;;;;;;;6.90;3.60;;;;;;;23.79;23.61;100560.08;106334;1274;138288;-73
2022/05/05 08:38:32;;;;;;;10.80;4.10;;;;;;;24.35;23.35;100556.88;106210;1274;109096;-71
2022/05/05 08:41:10;;;;;;;10.00;3.70;;;;;;;25.03;23.18;100552.72;106122;1274;141372;-72
2022/05/05 08:43:42;;;;;;;6.30;3.50;;;;;;;25.49;22.01;100555.60;106896;1274;97854;-72
2022/05/05 08:46:35;;;;;;;11.00;3.70;;;;;;;25.67;21.72;100549.55;106192;1274;112571;-71
2022/05/05 08:49:09;;;;;;;10.30;3.80;;;;;;;25.64;21.21;100545.83;106098;1274;139711;-71
2022/05/05 08:51:48;;;;;;;14.50;3.90;;;;;;;25.81;21.55;100544.40;106182;1274;108624;-72
2022/05/05 08:54:22;;;;;;;12.00;3.80;;;;;;;26.03;21.14;100544.95;106030;1274;138028;-72
2022/05/05 08:56:55;;;;;;;8.20;3.40;;;;;;;25.92;20.99;100555.92;106218;1274;97845;-71
2022/05/05 08:59:27;;;;;;;10.60;3.60;;;;;;;25.63;20.73;100550.21;106073;1274;138137;-72
2022/05/05 09:01:59;;;;;;;7.50;3.30;;;;;;;25.46;21.13;100542.52;106320;1274;108852;-72
2022/05/05 09:04:31;;;;;;;6.50;3.40;;;;;;;25.57;21.71;100543.77;106158;1274;108957;-74
2022/05/05 09:07:04;;;;;;;11.00;3.10;;;;;;;25.76;21.35;100545.98;106112;1274;139689;-71
2022/05/05 09:09:37;;;;;;;7.10;3.20;;;;;;;25.75;20.84;100550.77;106358;1274;97833;-72
2022/05/05 09:12:14;;;;;;;10.90;3.20;;;;;;;25.59;21.40;100552.55;106135;1274;137724;-72
2022/05/05 09:14:49;;;;;;;7.80;3.30;;;;;;;25.62;21.33;100543.35;106449;1274;108826;-72
2022/05/05 09:17:23;;;;;;;12.10;3.20;;;;;;;25.70;21.48;100541.94;106281;1274;138537;-73
2022/05/05 09:19:57;;;;;;;5.70;2.70;;;;;;;25.76;21.19;100544.58;106561;1274;97853;-72
2022/05/05 09:22:31;;;;;;;9.70;3.30;;;;;;;25.66;21.25;100538.34;106235;1274;98635;-72
2022/05/05 09:25:03;;;;;;;7.80;3.30;;;;;;;25.56;21.01;100542.00;106170;1274;137692;-72
2022/05/05 09:27:36;;;;;;;12.20;3.30;;;;;;;25.23;21.33;100547.05;106234;1274;109320;-72
2022/05/05 09:30:12;;;;;;;9.40;3.50;;;;;;;25.11;21.41;100547.23;106094;1274;139822;-72
2022/05/05 09:32:45;;;;;;;7.70;3.10;;;;;;;24.84;21.54;100544.27;106452;1274;97942;-72
2022/05/05 09:35:19;;;;;;;11.80;2.90;;;;;;;24.66;21.84;100542.80;106153;1274;137910;-72
2022/05/05 09:37:54;;;;;;;14.40;3.10;;;;;;;24.80;22.37;100538.73;106213;1274;112581;-73
2022/05/05 09:40:28;;;;;;;10.70;2.80;;;;;;;25.02;22.08;100541.24;106284;1274;108226;-72
2022/05/05 09:43:01;;;;;;;9.60;2.70;;;;;;;25.17;21.99;100538.13;106172;1274;138049;-72
2022/05/05 09:45:34;;;;;;;9.60;2.80;;;;;;;25.16;21.31;100545.39;106993;1274;97825;-72
2022/05/05 09:48:09;;;;;;;6.30;2.80;;;;;;;25.10;21.74;100529.58;106085;1274;137632;-72
2022/05/05 09:50:42;;;;;;;8.30;2.70;;;;;;;25.04;21.41;100530.09;106527;1273;111479;-72
2022/05/05 09:59:07;;;;;;;9.10;2.70;;;;;;;25.03;21.47;100535.45;106132;1273;97858;-74
2022/05/05 10:01:41;;;;;;;7.40;2.50;;;;;;;24.87;21.17;100540.80;106087;1274;137659;-72
2022/05/05 10:04:14;;;;;;;11.80;2.60;;;;;;;24.48;21.29;100543.44;106125;1274;112454;-72
2022/05/05 10:06:47;;;;;;;7.80;2.50;;;;;;;24.26;21.41;100521.52;106078;1274;138303;-73
2022/05/05 10:09:20;;;;;;;8.20;2.40;;;;;;;23.91;21.59;100523.23;106216;1274;107936;-71
2022/05/05 10:11:52;;;;;;;12.70;2.60;;;;;;;23.67;21.93;100530.39;106390;1274;139137;-72
2022/05/05 10:14:27;;;;;;;7.80;2.60;;;;;;;23.47;22.10;100521.86;106233;1274;98038;-71
2022/05/05 10:17:00;;;;;;;10.10;2.60;;;;;;;23.37;22.55;100525.88;106187;1274;112529;-72
2022/05/05 10:19:33;;;;;;;7.90;2.40;;;;;;;23.30;22.35;100524.52;106092;1274;138136;-74
2022/05/05 10:22:13;;;;;;;9.10;2.90;;;;;;;23.10;22.74;100515.84;106333;1274;108911;-72
2022/05/05 10:24:52;;;;;;;9.70;2.50;;;;;;;23.06;23.01;100520.55;106346;1274;138912;-72
2022/05/05 10:27:25;;;;;;;5.20;2.20;;;;;;;23.12;23.08;100518.15;106677;1274;97831;-74
2022/05/05 10:29:58;;;;;;;10.90;2.60;;;;;;;23.00;22.70;100512.16;106266;1274;137827;-74
2022/05/05 10:32:30;;;;;;;12.10;2.50;;;;;;;22.72;22.87;100513.81;106184;1273;109021;-72
2022/05/05 10:35:23;;;;;;;6.60;2.30;;;;;;;22.57;23.34;100509.70;106204;1273;108993;-73
2022/05/05 10:37:55;;;;;;;8.80;2.60;;;;;;;22.73;23.69;100509.01;106292;1274;137903;-73
2022/05/05 10:40:44;;;;;;;8.40;2.70;;;;;;;22.99;23.35;100517.76;106275;1274;97744;-71
2022/05/05 10:43:33;;;;;;;5.60;2.60;;;;;;;23.13;23.32;100512.92;106140;1274;137811;-73
2022/05/05 10:46:25;;;;;;;8.40;2.70;;;;;;;22.95;23.26;100510.64;106183;1274;108928;-73
2022/05/05 10:49:19;;;;;;;6.50;2.80;;;;;;;22.74;23.57;100525.73;106588;1274;137806;-72
2022/05/05 10:52:21;;;;;;;9.30;2.70;;;;;;;22.59;23.33;100513.13;106219;1273;97832;-72
2022/05/05 10:54:57;;;;;;;5.60;2.70;;;;;;;22.63;23.79;100518.08;106144;1274;137716;-72
2022/05/05 10:57:45;;;;;;;4.80;2.60;;;;;;;22.57;23.89;100510.08;106266;1274;112677;-73
2022/05/05 11:00:19;;;;;;;7.30;2.70;;;;;;;22.30;24.10;100514.12;106371;1274;138178;-73
2022/05/05 11:03:18;;;;;;;9.70;2.90;;;;;;;22.12;24.43;100501.16;107298;1274;108977;-73
2022/05/05 11:05:50;;;;;;;11.30;2.80;;;;;;;22.03;24.72;100506.43;106127;1274;138029;-73
2022/05/05 11:08:37;;;;;;;7.10;3.10;;;;;;;21.93;25.13;100522.54;106180;1274;98153;-74
2022/05/05 11:23:23;;;;;;;12.20;3.30;;;;;;;20.92;26.47;100515.81;105975;1279;97924;-74
2022/05/05 11:25:56;;;;;;;9.60;3.70;;;;;;;20.90;27.09;100513.84;105895;1279;138433;-73
2022/05/05 11:28:31;;;;;;;10.10;3.60;;;;;;;20.81;26.98;100509.67;106279;1278;108979;-74
2022/05/05 11:31:03;;;;;;;6.00;3.40;;;;;;;20.68;27.19;100508.13;105951;1279;138692;-73
2022/05/05 11:33:37;;;;;;;4.50;3.20;;;;;;;20.66;27.13;100501.04;106004;1279;97836;-73
2022/05/05 11:36:09;;;;;;;7.70;3.00;;;;;;;20.68;27.38;100501.39;105937;1279;97878;-73
2022/05/05 11:38:43;;;;;;;7.30;3.40;;;;;;;20.86;27.55;100500.85;106052;1279;139121;-72
2022/05/05 11:41:20;;;;;;;6.80;3.50;;;;;;;20.98;27.49;100509.86;106075;1279;108633;-73
2022/05/05 11:46:44;;;;;;;7.20;3.70;;;;;;;21.14;27.38;100499.55;106019;1278;97639;-74
2022/05/05 11:49:16;;;;;;;10.40;3.70;;;;;;;21.26;27.31;100500.59;106189;1279;138603;-74
2022/05/05 11:51:49;;;;;;;6.00;3.00;;;;;;;21.34;27.05;100483.42;106049;1279;113125;-74
2022/05/05 11:54:30;;;;;;;16.30;3.40;;;;;;;21.31;27.28;100486.33;106076;1276;106386;-73
2022/05/05 11:57:03;;;;;;;12.50;3.30;;;;;;;21.39;27.34;100483.80;106275;1275;107750;-73
2022/05/05 12:02:25;;;;;;;7.10;3.60;;;;;;;21.64;27.05;100478.15;106158;1276;138063;-73
2022/05/05 12:04:59;;;;;;;11.20;4.10;;;;;;;21.69;26.98;100481.54;106212;1276;112439;-72
2022/05/05 12:07:33;;;;;;;8.70;3.80;;;;;;;21.64;27.06;100473.37;106112;1276;139573;-72
2022/05/05 12:10:09;;;;;;;11.20;4.40;;;;;;;21.66;27.15;100468.26;106184;1276;108820;-73
2022/05/05 12:12:46;;;;;;;8.10;4.30;;;;;;;21.70;27.19;100466.72;106335;1276;139799;-72
2022/05/05 12:15:20;;;;;;;7.80;3.60;;;;;;;21.76;27.08;100464.08;106566;1276;97832;-72
2022/05/05 12:17:58;;;;;;;9.30;3.80;;;;;;;21.78;27.10;100458.90;106375;1275;111045;-72
2022/05/05 12:20:31;;;;;;;11.40;3.70;;;;;;;21.90;27.13;100459.09;106864;1275;137737;-73
2022/05/05 12:23:04;;;;;;;10.00;3.90;;;;;;;21.96;26.95;100460.23;106249;1275;108499;-72
2022/05/05 12:25:43;;;;;;;7.30;3.70;;;;;;;21.98;26.86;100449.05;106043;1276;138106;-72